Time;durP1;ratioP1;P1;durP2;ratioP2;P2;SDS_P1;SDS_P2;PMS_P1;PMS_P2;Temp;Humidity;BMP_temperature;BMP_pressure;BME280_temperature;BME280_humidity;BME280_pressure;Samples;Min_cycle;Max_cycle;Signal;HPM_P1;HPM_P2
2023/06/08 00:00:24;;;;;;;6.40;5.07;;;16.40;99.90;;;;;;5075992;28;20178;-89
2023/06/08 00:02:49;;;;;;;8.13;5.50;;;16.20;99.90;;;;;;5075736;28;20236;-89
2023/06/08 00:05:16;;;;;;;9.45;5.65;;;16.30;99.90;;;;;;5505715;22;20245;-85
2023/06/08 00:07:42;;;;;;;11.13;5.72;;;16.30;99.90;;;;;;5075425;28;20205;-85
2023/06/08 00:10:11;;;;;;;9.63;5.75;;;16.20;99.90;;;;;;5075457;28;20263;-85
2023/06/08 00:12:37;;;;;;;8.48;5.20;;;16.20;99.90;;;;;;5074116;28;20181;-85
2023/06/08 00:15:07;;;;;;;9.90;5.72;;;16.20;99.90;;;;;;5074061;28;20184;-85
2023/06/08 00:17:33;;;;;;;10.57;5.55;;;16.20;99.90;;;;;;5075063;28;20165;-85
2023/06/08 00:20:00;;;;;;;6.68;5.18;;;16.10;99.90;;;;;;5073931;28;20499;-86
2023/06/08 00:22:27;;;;;;;8.48;6.38;;;16.20;99.90;;;;;;5075234;28;20165;-85
2023/06/08 00:24:53;;;;;;;7.18;5.43;;;16.20;99.90;;;;;;5075231;28;20653;-85
2023/06/08 00:27:19;;;;;;;6.57;5.65;;;16.20;99.90;;;;;;5075036;28;20197;-85
2023/06/08 00:29:44;;;;;;;9.55;5.75;;;16.20;99.90;;;;;;5074931;28;20160;-85
2023/06/08 00:32:10;;;;;;;10.57;5.90;;;16.20;99.90;;;;;;5072935;28;20181;-85
2023/06/08 00:34:36;;;;;;;7.75;5.45;;;16.20;99.90;;;;;;5073697;28;20183;-85
2023/06/08 00:37:02;;;;;;;8.30;5.13;;;16.20;99.90;;;;;;5073366;28;20564;-85
2023/06/08 00:39:27;;;;;;;13.18;5.78;;;16.20;99.90;;;;;;5073597;28;20200;-85
2023/06/08 00:41:53;;;;;;;8.05;5.35;;;16.20;99.90;;;;;;5074777;28;20177;-85
2023/06/08 00:44:19;;;;;;;7.20;5.20;;;16.20;99.90;;;;;;5073334;28;20177;-85
2023/06/08 00:46:45;;;;;;;9.55;5.18;;;16.20;99.90;;;;;;5073203;28;20189;-85
2023/06/08 00:49:17;;;;;;;8.45;5.00;;;16.20;99.90;;;;;;5073381;28;20557;-85
2023/06/08 00:51:44;;;;;;;7.30;5.72;;;16.20;99.90;;;;;;5074570;28;20602;-85
2023/06/08 00:54:12;;;;;;;7.70;5.78;;;16.20;99.90;;;;;;5073610;28;20656;-84
2023/06/08 00:56:40;;;;;;;6.63;4.93;;;16.20;99.90;;;;;;5074559;28;20252;-85
2023/06/08 00:59:09;;;;;;;10.60;5.28;;;16.20;99.90;;;;;;5073048;28;20173;-85
2023/06/08 01:01:38;;;;;;;6.43;4.88;;;16.20;99.90;;;;;;5073044;28;20616;-85
2023/06/08 01:04:08;;;;;;;6.50;5.15;;;16.20;99.90;;;;;;5074519;28;20268;-84
2023/06/08 01:06:48;;;;;;;10.25;5.38;;;16.20;99.90;;;;;;5072898;28;20232;-85
2023/06/08 01:09:30;;;;;;;6.65;5.32;;;16.20;99.90;;;;;;5072869;28;20189;-85
2023/06/08 01:12:34;;;;;;;6.50;4.90;;;16.20;99.90;;;;;;5074114;28;20161;-85
2023/06/08 01:15:13;;;;;;;6.38;4.75;;;16.30;99.90;;;;;;5073011;28;20518;-85
2023/06/08 01:17:41;;;;;;;11.82;5.47;;;16.30;99.90;;;;;;5072804;28;20208;-84
2023/06/08 01:20:21;;;;;;;5.57;4.80;;;16.30;99.90;;;;;;5073755;28;20172;-84
2023/06/08 01:22:59;;;;;;;7.35;5.40;;;16.40;99.90;;;;;;5074110;28;20679;-85
2023/06/08 01:25:30;;;;;;;8.57;4.97;;;16.40;99.90;;;;;;5074139;28;20157;-84
2023/06/08 01:28:13;;;;;;;7.68;5.20;;;16.40;99.90;;;;;;5072619;28;20318;-85
2023/06/08 01:30:46;;;;;;;10.52;5.20;;;16.40;99.90;;;;;;5073888;28;20169;-85
2023/06/08 01:33:16;;;;;;;8.48;4.88;;;16.40;99.90;;;;;;5073974;28;20517;-84
2023/06/08 01:36:05;;;;;;;8.55;4.90;;;16.40;99.90;;;;;;5072727;28;20181;-85
2023/06/08 01:38:55;;;;;;;6.82;4.38;;;16.40;99.90;;;;;;5061606;28;20182;-84
2023/06/08 01:41:25;;;;;;;7.22;5.15;;;16.40;99.90;;;;;;5073913;28;20164;-85
2023/06/08 01:43:51;;;;;;;7.07;4.70;;;16.40;99.90;;;;;;5073019;28;20173;-85
2023/06/08 01:46:20;;;;;;;8.80;5.00;;;16.30;99.90;;;;;;5073836;28;20197;-84
2023/06/08 01:48:48;;;;;;;5.53;4.43;;;16.30;99.90;;;;;;5073700;28;20280;-85
2023/06/08 01:51:15;;;;;;;9.93;4.72;;;16.30;99.90;;;;;;5072302;28;20165;-84
2023/06/08 01:53:41;;;;;;;7.97;4.72;;;16.30;99.90;;;;;;5072677;28;20180;-85
2023/06/08 01:56:07;;;;;;;8.63;4.63;;;16.30;99.90;;;;;;5072461;28;20181;-85
2023/06/08 01:58:33;;;;;;;11.43;5.07;;;16.30;99.90;;;;;;5072378;28;20173;-84
2023/06/08 02:00:58;;;;;;;8.90;4.38;;;16.30;99.90;;;;;;5073665;28;20168;-84
2023/06/08 02:03:24;;;;;;;8.00;4.40;;;16.30;99.90;;;;;;5073400;28;20649;-84
2023/06/08 02:05:50;;;;;;;7.93;4.50;;;16.20;99.90;;;;;;5073180;28;20359;-84
2023/06/08 02:08:16;;;;;;;8.07;4.57;;;16.30;99.90;;;;;;5073529;28;20286;-84
2023/06/08 02:10:41;;;;;;;11.60;4.55;;;16.20;99.90;;;;;;5073607;28;20169;-84
2023/06/08 02:13:07;;;;;;;7.25;4.25;;;16.20;99.90;;;;;;5072161;28;20272;-84
2023/06/08 02:15:33;;;;;;;7.90;3.90;;;16.30;99.90;;;;;;5073516;28;20165;-85
2023/06/08 02:17:58;;;;;;;9.25;4.22;;;16.30;99.90;;;;;;5072231;28;20185;-84
2023/06/08 02:20:25;;;;;;;7.25;4.50;;;16.30;99.90;;;;;;5073284;28;20616;-84
2023/06/08 02:22:50;;;;;;;7.72;4.45;;;16.30;99.90;;;;;;5073350;28;20173;-85
2023/06/08 02:25:16;;;;;;;7.57;4.82;;;16.20;99.90;;;;;;5073413;28;20180;-84
2023/06/08 02:27:43;;;;;;;10.10;5.15;;;16.20;99.90;;;;;;5072057;28;20216;-85
2023/06/08 02:30:11;;;;;;;8.18;4.55;;;16.20;99.90;;;;;;5072001;28;20174;-85
2023/06/08 02:32:41;;;;;;;7.60;4.65;;;16.20;99.90;;;;;;5073156;28;20268;-84
2023/06/08 02:35:07;;;;;;;8.60;4.70;;;16.20;99.90;;;;;;5071872;28;20307;-85
2023/06/08 02:37:36;;;;;;;7.75;4.40;;;16.20;99.90;;;;;;5073288;28;20166;-85
2023/06/08 02:40:04;;;;;;;9.15;4.97;;;16.20;99.90;;;;;;5072030;28;20174;-85
2023/06/08 02:42:30;;;;;;;10.13;4.72;;;16.20;99.90;;;;;;5071893;28;20181;-84
2023/06/08 02:44:55;;;;;;;9.07;4.43;;;16.20;99.90;;;;;;5071974;28;20184;-84
2023/06/08 02:47:21;;;;;;;9.02;4.95;;;16.10;99.90;;;;;;5071649;28;20300;-84
2023/06/08 02:49:47;;;;;;;6.80;4.25;;;16.20;99.90;;;;;;5073031;28;20184;-84
2023/06/08 02:52:13;;;;;;;10.10;4.85;;;16.20;99.90;;;;;;5073082;28;20173;-84
2023/06/08 02:54:38;;;;;;;10.45;5.07;;;16.20;99.90;;;;;;5073233;28;20587;-85
2023/06/08 02:57:05;;;;;;;8.02;4.55;;;16.20;99.90;;;;;;5075539;28;20243;-85
2023/06/08 02:59:31;;;;;;;7.95;4.63;;;16.20;99.90;;;;;;5076775;28;20170;-84
2023/06/08 03:01:57;;;;;;;8.02;5.07;;;16.20;99.90;;;;;;5076562;28;20510;-85
2023/06/08 03:04:28;;;;;;;13.88;4.85;;;16.20;99.90;;;;;;5076536;28;20184;-84
2023/06/08 03:06:53;;;;;;;6.22;4.65;;;16.20;99.90;;;;;;5076482;28;20271;-84
2023/06/08 03:09:29;;;;;;;7.03;5.10;;;16.20;99.90;;;;;;5076565;28;20565;-84
2023/06/08 03:11:56;;;;;;;6.70;5.15;;;16.20;99.90;;;;;;5076511;28;20162;-85
2023/06/08 03:14:28;;;;;;;8.13;4.75;;;16.20;99.90;;;;;;5076355;28;20180;-84
2023/06/08 03:17:02;;;;;;;8.35;4.43;;;16.20;99.90;;;;;;5076397;28;20218;-84
2023/06/08 03:19:31;;;;;;;6.30;4.65;;;16.20;99.90;;;;;;5076441;28;20248;-84
2023/06/08 03:22:02;;;;;;;6.57;4.68;;;16.20;99.90;;;;;;5075125;28;20181;-84
2023/06/08 03:24:31;;;;;;;7.10;4.45;;;16.20;99.90;;;;;;5075111;28;20173;-84
2023/06/08 03:26:58;;;;;;;9.00;4.85;;;16.20;99.90;;;;;;5075951;28;20173;-85
2023/06/08 03:29:25;;;;;;;6.45;4.78;;;16.20;99.90;;;;;;5074792;28;20181;-84
2023/06/08 03:31:51;;;;;;;6.70;4.72;;;16.20;99.90;;;;;;5076189;28;20161;-84
2023/06/08 03:34:17;;;;;;;7.15;4.72;;;16.10;99.90;;;;;;5074862;28;20187;-84
2023/06/08 03:36:44;;;;;;;6.70;4.75;;;16.10;99.90;;;;;;5074867;28;20215;-84
2023/06/08 03:39:10;;;;;;;6.10;4.50;;;16.10;99.90;;;;;;5076039;28;20382;-84
2023/06/08 03:41:36;;;;;;;8.10;4.72;;;16.10;99.90;;;;;;5075751;28;20160;-84
2023/06/08 03:44:01;;;;;;;6.45;4.43;;;16.10;99.90;;;;;;5075936;28;20264;-84
2023/06/08 03:46:27;;;;;;;8.10;5.00;;;16.10;99.90;;;;;;5074711;28;20604;-85
2023/06/08 03:48:53;;;;;;;8.57;5.20;;;16.10;99.90;;;;;;5074792;28;20217;-85
2023/06/08 03:51:22;;;;;;;6.78;4.30;;;16.10;99.90;;;;;;5076104;28;20169;-84
2023/06/08 03:53:48;;;;;;;9.48;5.45;;;16.10;99.90;;;;;;5075701;28;20174;-84
2023/06/08 03:56:15;;;;;;;8.05;4.45;;;16.00;99.90;;;;;;5074338;28;20189;-85
2023/06/08 03:58:41;;;;;;;7.40;4.80;;;16.00;99.90;;;;;;5074391;28;20187;-85
2023/06/08 04:01:11;;;;;;;9.98;4.80;;;16.00;99.90;;;;;;5074402;28;20176;-84
2023/06/08 04:03:37;;;;;;;7.03;5.00;;;16.00;99.90;;;;;;5074223;28;20181;-84
2023/06/08 04:06:08;;;;;;;7.05;5.18;;;16.00;99.90;;;;;;5075260;28;20221;-84
2023/06/08 04:08:39;;;;;;;7.80;4.88;;;16.00;99.90;;;;;;5074692;28;20677;-84
2023/06/08 04:11:05;;;;;;;11.55;5.55;;;16.00;99.90;;;;;;5073951;28;20181;-84
2023/06/08 04:13:30;;;;;;;6.85;4.85;;;16.00;99.90;;;;;;5074293;28;20210;-84
2023/06/08 04:15:56;;;;;;;8.63;5.28;;;15.90;99.90;;;;;;5074146;28;20268;-84
2023/06/08 04:18:22;;;;;;;7.25;4.85;;;15.90;99.90;;;;;;5075441;28;20181;-83
2023/06/08 04:20:48;;;;;;;7.63;5.22;;;16.00;99.90;;;;;;5073996;28;20165;-84
2023/06/08 04:23:15;;;;;;;9.02;5.60;;;15.90;99.90;;;;;;5074995;28;20197;-84
2023/06/08 04:25:41;;;;;;;9.65;5.30;;;15.80;99.90;;;;;;5073768;28;20516;-84
2023/06/08 04:28:07;;;;;;;10.45;5.28;;;15.80;99.90;;;;;;5075058;28;20205;-84
2023/06/08 04:30:32;;;;;;;7.90;5.68;;;15.80;99.90;;;;;;5073747;28;20204;-84
2023/06/08 04:32:59;;;;;;;7.57;5.45;;;15.80;99.90;;;;;;5075057;28;20165;-85
2023/06/08 04:35:25;;;;;;;8.30;5.47;;;15.80;99.90;;;;;;5073729;28;20514;-85
2023/06/08 04:37:51;;;;;;;8.27;4.97;;;15.80;99.90;;;;;;5073452;28;20173;-84
2023/06/08 04:40:17;;;;;;;8.40;5.50;;;15.90;99.90;;;;;;5074714;28;20515;-84
2023/06/08 04:42:44;;;;;;;8.75;5.40;;;15.80;99.90;;;;;;5074873;28;20161;-85
2023/06/08 04:45:11;;;;;;;7.20;4.78;;;15.80;99.90;;;;;;5073603;28;20181;-85
2023/06/08 04:47:39;;;;;;;11.63;5.30;;;15.90;99.90;;;;;;5074688;28;20201;-84
2023/06/08 04:50:10;;;;;;;6.85;4.90;;;15.90;99.90;;;;;;5074385;28;20669;-84
2023/06/08 04:52:40;;;;;;;7.63;5.38;;;16.00;99.90;;;;;;5073146;28;20184;-84
2023/06/08 04:55:13;;;;;;;7.78;5.07;;;16.00;99.90;;;;;;5074647;28;20200;-85
2023/06/08 04:57:42;;;;;;;10.25;5.20;;;16.00;99.90;;;;;;5073406;28;20173;-85
2023/06/08 05:00:12;;;;;;;11.05;5.47;;;16.00;99.90;;;;;;5073202;28;20201;-85
2023/06/08 05:02:38;;;;;;;14.35;5.70;;;16.00;99.90;;;;;;5074301;28;20161;-84
2023/06/08 05:05:05;;;;;;;7.82;5.30;;;16.00;99.90;;;;;;5074277;28;20213;-85
2023/06/08 05:07:31;;;;;;;10.75;5.43;;;16.00;99.90;;;;;;5074450;28;20280;-84
2023/06/08 05:10:03;;;;;;;7.22;5.45;;;16.10;99.90;;;;;;5072952;28;20288;-84
2023/06/08 05:12:28;;;;;;;7.88;5.55;;;16.10;99.90;;;;;;5072956;28;20169;-84
2023/06/08 05:14:57;;;;;;;8.00;5.22;;;16.10;99.90;;;;;;5072908;28;20272;-84
2023/06/08 05:17:23;;;;;;;8.45;5.15;;;16.10;99.90;;;;;;5073895;28;20612;-84
2023/06/08 05:19:50;;;;;;;10.50;5.70;;;16.10;99.90;;;;;;5074033;28;20205;-84
2023/06/08 05:22:16;;;;;;;8.60;5.72;;;16.10;99.90;;;;;;5072813;28;20170;-84
2023/06/08 05:24:41;;;;;;;7.78;5.30;;;16.10;99.90;;;;;;5074221;28;20252;-84
2023/06/08 05:27:07;;;;;;;9.70;5.78;;;16.10;99.90;;;;;;5072700;28;20251;-84
2023/06/08 05:29:33;;;;;;;9.30;5.80;;;16.10;99.90;;;;;;5072743;28;20230;-85
2023/06/08 05:32:00;;;;;;;9.60;6.05;;;16.20;99.90;;;;;;5073813;28;20193;-84
2023/06/08 05:34:26;;;;;;;10.02;6.00;;;16.20;99.90;;;;;;5074196;28;20227;-85
2023/06/08 05:36:53;;;;;;;15.20;6.38;;;16.30;99.90;;;;;;5072626;28;20205;-85
2023/06/08 05:39:18;;;;;;;13.07;6.25;;;16.30;99.90;;;;;;5072574;28;20816;-85
2023/06/08 05:41:44;;;;;;;8.02;5.90;;;16.30;99.90;;;;;;5073855;28;20223;-85
2023/06/08 05:44:10;;;;;;;8.55;6.10;;;16.40;99.90;;;;;;5073930;28;20234;-85
2023/06/08 05:46:36;;;;;;;10.88;5.90;;;16.40;99.90;;;;;;5072333;28;20199;-84
2023/06/08 05:49:02;;;;;;;9.15;5.53;;;16.50;99.90;;;;;;5072349;28;20213;-85
2023/06/08 05:51:27;;;;;;;10.32;5.82;;;16.50;99.90;;;;;;5073830;28;20177;-85
2023/06/08 05:53:53;;;;;;;11.10;5.68;;;16.50;99.90;;;;;;5073753;28;20177;-84
2023/06/08 05:56:18;;;;;;;12.50;5.97;;;16.50;99.90;;;;;;5073801;28;20183;-84
2023/06/08 05:58:44;;;;;;;11.73;6.38;;;16.50;99.90;;;;;;5072471;28;20185;-85
2023/06/08 06:01:10;;;;;;;9.63;6.20;;;16.50;99.90;;;;;;5073347;28;20205;-84
2023/06/08 06:03:36;;;;;;;10.77;6.05;;;16.60;99.90;;;;;;5073522;28;20510;-84
2023/06/08 06:06:02;;;;;;;8.93;5.85;;;16.70;99.90;;;;;;5072082;28;20221;-84
2023/06/08 06:08:27;;;;;;;8.82;5.57;;;16.60;99.90;;;;;;5073551;28;20209;-84
2023/06/08 06:10:53;;;;;;;11.23;5.88;;;16.70;99.90;;;;;;5073524;28;20177;-85
2023/06/08 06:13:19;;;;;;;8.48;6.22;;;16.80;99.90;;;;;;5072225;28;20560;-84
2023/06/08 06:15:45;;;;;;;9.13;5.75;;;16.90;99.90;;;;;;5073250;28;20173;-84
2023/06/08 06:18:10;;;;;;;10.27;5.95;;;17.00;99.90;;;;;;5072157;28;20226;-85
2023/06/08 06:20:36;;;;;;;11.35;6.28;;;17.10;99.90;;;;;;5072949;28;20215;-85
2023/06/08 06:23:02;;;;;;;10.77;6.53;;;17.20;99.90;;;;;;5073526;28;20248;-85
2023/06/08 06:25:27;;;;;;;11.65;6.80;;;17.30;99.90;;;;;;5073415;28;20616;-84
2023/06/08 06:27:53;;;;;;;8.95;6.07;;;17.40;99.90;;;;;;5073296;28;20582;-85
2023/06/08 06:30:19;;;;;;;10.50;6.03;;;17.60;99.90;;;;;;5074157;28;20539;-84
2023/06/08 06:32:44;;;;;;;10.38;6.45;;;17.70;99.90;;;;;;5075891;28;20528;-85
2023/06/08 06:35:10;;;;;;;9.98;6.25;;;17.80;99.90;;;;;;5075980;28;20267;-85
2023/06/08 06:37:36;;;;;;;9.95;5.93;;;18.00;99.90;;;;;;5075994;28;20517;-86
2023/06/08 06:40:09;;;;;;;11.95;7.20;;;18.00;99.90;;;;;;5077145;28;20184;-84
2023/06/08 06:42:39;;;;;;;9.07;6.57;;;18.10;99.90;;;;;;5075749;28;20619;-84
2023/06/08 06:45:05;;;;;;;11.68;6.95;;;18.20;99.90;;;;;;5076891;28;20169;-84
2023/06/08 06:47:31;;;;;;;8.38;6.47;;;18.20;99.90;;;;;;5077017;28;20204;-84
2023/06/08 06:49:56;;;;;;;9.55;6.45;;;18.30;99.90;;;;;;5075701;28;20177;-84
2023/06/08 06:52:22;;;;;;;21.60;7.13;;;18.30;99.90;;;;;;5076904;28;20181;-84
2023/06/08 06:54:48;;;;;;;11.25;6.95;;;18.30;99.90;;;;;;5076845;28;20173;-84
2023/06/08 06:57:13;;;;;;;8.55;6.80;;;18.30;99.90;;;;;;5077050;28;20177;-85
2023/06/08 06:59:40;;;;;;;9.32;6.97;;;18.40;99.90;;;;;;5076591;28;20271;-84
2023/06/08 07:02:07;;;;;;;10.73;6.30;;;18.40;99.90;;;;;;5075391;28;20181;-84
2023/06/08 07:04:32;;;;;;;11.00;6.57;;;18.50;99.90;;;;;;5076853;28;20170;-84
2023/06/08 07:06:58;;;;;;;9.02;6.40;;;18.50;99.90;;;;;;5075226;28;20259;-84
2023/06/08 07:09:24;;;;;;;10.40;6.43;;;18.50;99.90;;;;;;5076593;28;20185;-84
2023/06/08 07:11:51;;;;;;;12.50;7.05;;;18.50;99.90;;;;;;5075013;28;20611;-84
2023/06/08 07:14:17;;;;;;;8.93;6.70;;;18.60;99.90;;;;;;5075048;28;20521;-84
2023/06/08 07:16:43;;;;;;;10.90;6.75;;;18.60;99.90;;;;;;5075260;28;20181;-84
2023/06/08 07:19:08;;;;;;;8.43;6.25;;;18.60;99.90;;;;;;5076353;28;20174;-85
2023/06/08 07:21:38;;;;;;;13.80;7.10;;;18.70;99.90;;;;;;5076459;28;20710;-85
2023/06/08 07:24:05;;;;;;;14.52;7.10;;;18.90;99.90;;;;;;5075142;28;20174;-85
2023/06/08 07:26:31;;;;;;;9.15;6.70;;;19.00;99.90;;;;;;5076161;28;20173;-84
2023/06/08 07:28:57;;;;;;;8.68;6.88;;;19.20;99.90;;;;;;5075965;28;20219;-84
2023/06/08 07:31:23;;;;;;;9.73;6.47;;;19.40;99.90;;;;;;5076085;28;20307;-84
2023/06/08 07:33:50;;;;;;;11.25;6.80;;;19.60;99.90;;;;;;5074980;28;20289;-85
2023/06/08 07:36:16;;;;;;;7.75;6.63;;;19.80;99.90;;;;;;5076173;28;20176;-85
2023/06/08 07:38:41;;;;;;;12.75;6.80;;;20.10;99.90;;;;;;5074921;28;20181;-86
2023/06/08 07:41:07;;;;;;;11.15;6.80;;;20.20;99.90;;;;;;5074015;28;20719;-85
2023/06/08 07:43:33;;;;;;;9.07;6.15;;;20.30;99.90;;;;;;5075088;28;20165;-84
2023/06/08 07:45:59;;;;;;;8.40;5.93;;;20.20;99.90;;;;;;5074723;28;20184;-85
2023/06/08 07:48:24;;;;;;;9.15;6.72;;;20.30;99.90;;;;;;5074725;28;20544;-85
2023/06/08 07:50:50;;;;;;;11.18;6.85;;;20.30;99.90;;;;;;5075832;28;20165;-85
2023/06/08 07:53:17;;;;;;;9.95;6.75;;;20.20;99.90;;;;;;5075893;28;20473;-85
2023/06/08 07:55:43;;;;;;;10.85;6.55;;;20.30;99.90;;;;;;5074376;28;20183;-84
2023/06/08 07:58:09;;;;;;;12.38;6.72;;;20.30;99.90;;;;;;5074438;28;20181;-84
2023/06/08 08:00:35;;;;;;;10.27;7.45;;;20.30;99.90;;;;;;5075679;28;20513;-84
2023/06/08 08:03:03;;;;;;;10.65;8.20;;;20.30;99.90;;;;;;5074369;28;20691;-85
2023/06/08 08:05:30;;;;;;;16.63;7.88;;;20.30;99.90;;;;;;5075441;28;20229;-84
2023/06/08 08:07:56;;;;;;;11.07;7.10;;;20.30;99.90;;;;;;5074175;28;20209;-85
2023/06/08 08:10:21;;;;;;;12.30;7.20;;;20.30;99.90;;;;;;5073880;28;20230;-85
2023/06/08 08:12:47;;;;;;;9.52;7.22;;;20.30;99.90;;;;;;5074122;28;20215;-84
2023/06/08 08:15:13;;;;;;;10.60;6.60;;;20.20;99.90;;;;;;5074179;28;20204;-85
2023/06/08 08:17:40;;;;;;;11.30;6.88;;;20.30;99.90;;;;;;5075399;28;20538;-85
2023/06/08 08:20:07;;;;;;;11.80;6.85;;;20.40;99.90;;;;;;5074802;28;20162;-85
2023/06/08 08:22:33;;;;;;;11.63;6.82;;;20.60;99.90;;;;;;5073783;28;20188;-85
2023/06/08 08:24:59;;;;;;;14.95;8.32;;;20.60;99.90;;;;;;5075114;28;20157;-85
2023/06/08 08:27:25;;;;;;;15.75;8.15;;;20.70;99.90;;;;;;5073859;28;20212;-85
2023/06/08 08:29:51;;;;;;;15.38;8.85;;;20.90;99.90;;;;;;5073777;28;20238;-85
2023/06/08 08:32:16;;;;;;;13.32;7.13;;;21.00;99.90;;;;;;5075046;28;20653;-85
2023/06/08 08:34:42;;;;;;;11.73;7.50;;;21.00;99.90;;;;;;5073774;28;20626;-85
2023/06/08 08:37:08;;;;;;;12.73;7.15;;;21.00;99.90;;;;;;5075179;28;20170;-84
2023/06/08 08:39:33;;;;;;;10.70;6.40;;;21.10;99.90;;;;;;5074532;28;20181;-85
2023/06/08 08:42:06;;;;;;;11.80;6.28;;;21.20;99.90;;;;;;5074607;28;20204;-85
2023/06/08 08:44:33;;;;;;;9.63;7.00;;;21.30;99.90;;;;;;5073636;28;20188;-85
2023/06/08 08:47:02;;;;;;;10.23;6.38;;;21.40;99.90;;;;;;5073460;28;20184;-85
2023/06/08 08:49:32;;;;;;;11.18;7.05;;;21.40;99.90;;;;;;5074673;28;20215;-86
2023/06/08 08:52:01;;;;;;;12.90;7.00;;;21.50;99.90;;;;;;5073120;28;20576;-85
2023/06/08 08:54:31;;;;;;;10.60;6.68;;;21.50;99.90;;;;;;5074121;28;20604;-85
2023/06/08 08:56:58;;;;;;;13.15;6.88;;;21.80;99.90;;;;;;5073340;28;20173;-85
2023/06/08 08:59:27;;;;;;;7.60;6.13;;;21.90;99.90;;;;;;5074425;28;20519;-86
2023/06/08 09:01:52;;;;;;;9.20;6.35;;;22.10;99.90;;;;;;5073160;28;20574;-86
2023/06/08 09:04:18;;;;;;;10.23;7.03;;;22.20;99.90;;;;;;5073165;28;20173;-85
2023/06/08 09:06:50;;;;;;;7.18;5.22;;;22.10;99.90;;;;;;5074094;28;20236;-86
2023/06/08 09:09:16;;;;;;;9.77;5.97;;;22.10;99.90;;;;;;5072951;28;20204;-86
2023/06/08 09:12:10;;;;;;;8.90;5.93;;;22.00;99.90;;;;;;5074255;28;20612;-86
2023/06/08 09:14:35;;;;;;;9.63;6.28;;;21.80;99.90;;;;;;5069965;28;20193;-86
2023/06/08 09:17:01;;;;;;;8.45;5.75;;;21.80;99.90;;;;;;5073994;28;20552;-85
2023/06/08 09:19:28;;;;;;;10.13;6.10;;;21.80;99.90;;;;;;5073613;28;20223;-85
2023/06/08 09:21:53;;;;;;;7.53;5.70;;;21.80;99.90;;;;;;5072828;28;20181;-86
2023/06/08 09:24:21;;;;;;;9.88;6.03;;;21.80;99.90;;;;;;5072937;28;20526;-86
2023/06/08 09:26:56;;;;;;;9.63;6.50;;;21.90;99.90;;;;;;5072825;28;20173;-86
2023/06/08 09:29:41;;;;;;;9.27;6.45;;;21.90;99.90;;;;;;5072559;28;20196;-86
2023/06/08 09:32:16;;;;;;;10.13;6.03;;;22.10;99.90;;;;;;5074072;28;20154;-86
2023/06/08 09:34:55;;;;;;;9.85;5.40;;;22.20;99.90;;;;;;5072742;28;20565;-86
2023/06/08 09:37:49;;;;;;;7.95;5.40;;;22.30;99.90;;;;;;5074016;28;20256;-87
2023/06/08 09:40:20;;;;;;;8.02;5.32;;;22.50;99.40;;;;;;5070210;28;20180;-86
2023/06/08 09:42:51;;;;;;;6.65;5.03;;;22.40;99.20;;;;;;5072598;28;20169;-86
2023/06/08 09:45:17;;;;;;;7.93;5.05;;;22.50;99.90;;;;;;5072694;28;20188;-86
2023/06/08 09:47:43;;;;;;;6.63;5.25;;;22.60;99.90;;;;;;5072532;28;20209;-86
2023/06/08 09:50:10;;;;;;;9.85;5.65;;;22.70;99.90;;;;;;5073633;28;20180;-86
2023/06/08 09:52:37;;;;;;;8.13;5.05;;;22.90;99.90;;;;;;5073537;28;20193;-86
2023/06/08 09:55:04;;;;;;;9.13;5.68;;;22.90;99.90;;;;;;5073810;28;20634;-87
2023/06/08 09:57:36;;;;;;;8.90;5.60;;;22.90;99.90;;;;;;5073838;28;20184;-86
2023/06/08 10:03:01;;;;;;;9.18;5.72;;;23.10;99.70;;;;;;5073832;28;20157;-87
2023/06/08 10:05:34;;;;;;;7.57;5.50;;;23.30;97.70;;;;;;5071359;28;20228;-87
2023/06/08 10:08:04;;;;;;;7.32;5.50;;;23.50;98.50;;;;;;5073674;28;20233;-86
2023/06/08 10:10:35;;;;;;;7.13;5.25;;;23.60;99.60;;;;;;5072270;28;20177;-87
2023/06/08 10:13:01;;;;;;;7.22;5.10;;;23.60;98.60;;;;;;5072238;28;20173;-88
2023/06/08 10:15:34;;;;;;;9.40;4.97;;;23.60;97.90;;;;;;5072092;28;20172;-86
2023/06/08 10:18:00;;;;;;;7.65;5.35;;;23.50;98.30;;;;;;5072345;28;20683;-86
2023/06/08 10:20:27;;;;;;;8.73;5.10;;;23.40;98.70;;;;;;5072204;28;20311;-86
2023/06/08 10:22:53;;;;;;;8.65;5.28;;;23.30;97.80;;;;;;5073387;28;20177;-86
2023/06/08 10:25:20;;;;;;;8.73;5.47;;;23.30;98.30;;;;;;5073505;28;20174;-87
2023/06/08 10:27:51;;;;;;;5.80;4.70;;;23.20;97.70;;;;;;5071810;28;20197;-86
2023/06/08 10:30:42;;;;;;;7.70;5.53;;;23.20;97.50;;;;;;5073618;28;20177;-86
2023/06/08 10:33:24;;;;;;;6.80;4.93;;;23.10;97.30;;;;;;5073422;28;20161;-86
2023/06/08 10:36:09;;;;;;;7.07;5.20;;;23.00;98.20;;;;;;5072121;28;20177;-86
2023/06/08 10:38:51;;;;;;;7.00;4.63;;;22.80;98.00;;;;;;5071931;28;20188;-86
2023/06/08 10:41:38;;;;;;;9.30;4.75;;;22.80;97.80;;;;;;5072015;28;20515;-87
2023/06/08 10:44:04;;;;;;;5.80;4.38;;;22.80;97.20;;;;;;5072065;28;20176;-87
2023/06/08 10:46:42;;;;;;;6.57;4.35;;;22.90;98.00;;;;;;5071840;28;20635;-86
2023/06/08 10:49:08;;;;;;;6.32;4.25;;;23.10;98.20;;;;;;5073044;28;20205;-87
2023/06/08 10:51:43;;;;;;;9.20;4.60;;;23.30;97.40;;;;;;5071980;28;20177;-86
2023/06/08 10:54:09;;;;;;;6.95;4.10;;;23.70;94.90;;;;;;5072019;28;20532;-87
2023/06/08 10:56:46;;;;;;;7.28;4.35;;;24.00;95.10;;;;;;5073213;28;20166;-86
2023/06/08 10:59:12;;;;;;;5.57;4.30;;;24.20;94.80;;;;;;5071677;28;20206;-88
2023/06/08 11:01:37;;;;;;;7.18;4.18;;;24.20;93.90;;;;;;5071841;28;20267;-86
2023/06/08 11:04:05;;;;;;;7.80;4.28;;;24.30;93.80;;;;;;5071898;28;20556;-86
2023/06/08 11:06:33;;;;;;;6.03;3.80;;;24.20;91.20;;;;;;5073017;28;20358;-86
2023/06/08 11:09:01;;;;;;;10.63;3.92;;;24.20;92.50;;;;;;5072941;28;20205;-87
2023/06/08 11:11:27;;;;;;;6.97;3.70;;;24.20;91.80;;;;;;5071512;28;20197;-86
2023/06/08 11:13:53;;;;;;;10.13;3.78;;;24.10;91.60;;;;;;5071484;28;20333;-86
2023/06/08 11:16:20;;;;;;;5.90;4.18;;;24.20;90.20;;;;;;5073992;28;20164;-86
2023/06/08 11:18:45;;;;;;;5.28;3.72;;;24.20;91.50;;;;;;5076146;28;20183;-87
2023/06/08 11:21:11;;;;;;;5.43;3.58;;;24.20;91.00;;;;;;5076348;28;20170;-86
2023/06/08 11:23:37;;;;;;;5.85;4.03;;;24.10;90.60;;;;;;5076318;28;20666;-86
2023/06/08 11:26:03;;;;;;;4.88;3.95;;;24.20;92.70;;;;;;5074992;28;20495;-87
2023/06/08 11:28:29;;;;;;;6.80;3.92;;;24.20;93.70;;;;;;5076195;28;20270;-86
2023/06/08 11:30:55;;;;;;;6.30;3.88;;;24.20;93.60;;;;;;5075150;28;20533;-87
2023/06/08 11:33:21;;;;;;;7.80;4.03;;;24.20;92.80;;;;;;5074937;28;20193;-86
2023/06/08 11:35:51;;;;;;;4.90;3.88;;;24.20;92.20;;;;;;5075071;28;20165;-88
2023/06/08 11:38:16;;;;;;;6.88;4.03;;;24.20;93.90;;;;;;5074858;28;20173;-87
2023/06/08 11:40:42;;;;;;;5.80;3.90;;;24.20;93.00;;;;;;5074532;28;20260;-87
2023/06/08 11:43:12;;;;;;;6.30;4.20;;;24.30;93.50;;;;;;5074700;28;20607;-87
2023/06/08 11:45:39;;;;;;;6.35;3.78;;;24.40;91.90;;;;;;5076153;28;20157;-87
2023/06/08 11:48:06;;;;;;;6.60;4.03;;;24.50;91.40;;;;;;5075973;28;20205;-87
2023/06/08 11:50:31;;;;;;;5.75;4.40;;;24.60;92.60;;;;;;5074776;28;20177;-87
2023/06/08 11:53:00;;;;;;;4.95;3.80;;;24.90;90.80;;;;;;5075905;28;20177;-87
2023/06/08 11:55:26;;;;;;;5.28;3.78;;;25.10;90.60;;;;;;5074357;28;20230;-86
2023/06/08 11:57:55;;;;;;;9.65;4.10;;;25.20;91.90;;;;;;5075959;28;20180;-87
2023/06/08 12:00:27;;;;;;;6.78;4.40;;;25.50;90.50;;;;;;5074617;28;20188;-87
2023/06/08 12:02:55;;;;;;;5.13;3.90;;;25.70;91.30;;;;;;5075633;28;20189;-86
2023/06/08 12:05:25;;;;;;;7.57;3.90;;;25.90;90.30;;;;;;5074344;28;20746;-87
2023/06/08 12:08:08;;;;;;;5.43;4.20;;;26.00;90.60;;;;;;5074327;28;20224;-87
2023/06/08 12:10:35;;;;;;;5.40;3.90;;;26.20;91.20;;;;;;5075650;28;20177;-87
2023/06/08 12:13:06;;;;;;;7.43;4.15;;;26.60;91.20;;;;;;5075599;28;20173;-87
2023/06/08 12:15:48;;;;;;;5.55;4.30;;;26.70;86.20;;;;;;5074306;28;20634;-87
2023/06/08 12:18:18;;;;;;;8.50;4.45;;;26.80;90.10;;;;;;5073938;28;20200;-87
2023/06/08 12:20:52;;;;;;;4.95;3.90;;;26.80;88.20;;;;;;5075067;28;20587;-88
2023/06/08 12:23:18;;;;;;;5.65;3.80;;;26.80;90.20;;;;;;5074078;28;20493;-89
2023/06/08 12:25:43;;;;;;;6.95;3.55;;;26.90;91.20;;;;;;5074257;28;20188;-87
2023/06/08 12:28:17;;;;;;;7.57;4.00;;;27.10;90.70;;;;;;5073142;28;20247;-88
2023/06/08 12:30:43;;;;;;;4.20;3.15;;;27.20;90.40;;;;;;5074971;28;20170;-88
2023/06/08 12:33:11;;;;;;;5.10;3.38;;;27.20;84.60;;;;;;5075064;28;20184;-89
2023/06/08 12:35:37;;;;;;;3.75;3.35;;;27.30;90.50;;;;;;5074055;28;20188;-89
2023/06/08 12:38:05;;;;;;;5.00;3.10;;;27.30;87.00;;;;;;5073863;28;20628;-88
2023/06/08 12:40:31;;;;;;;4.20;2.95;;;27.30;84.90;;;;;;5073936;28;20537;-88
2023/06/08 12:42:56;;;;;;;5.18;2.88;;;27.30;85.30;;;;;;5074957;28;20196;-87
2023/06/08 12:45:22;;;;;;;5.20;2.33;;;27.40;83.90;;;;;;5074778;28;20196;-86
2023/06/08 12:47:49;;;;;;;3.08;2.83;;;27.50;82.90;;;;;;5074779;28;20200;-86
2023/06/08 12:50:22;;;;;;;5.18;2.70;;;27.50;81.70;;;;;;5074937;28;20178;-87